East Union, Washington
Current Conditions -  °F | °C
As of 1:53 AM on Wednesday 22 Oct 2014 (Local Time) from KBFI Reporting Station
Light Rain Light Rain  
Wind Chill: 15°   Ceiling: 5000
Heat Index: 15°   Visibility: 10mi
Dew Point:   Wind: 8mph
Humidity: 67%   Direction: 130°SE
Pressure: 29.68"   Gusts: NA
Location:  47.6108°N, 122.302°W
Report Text: KBFI 220853Z 13007KT 10SM -RA OVC050 15/09 A2968 RMK AO2 RAB18 SLP051 P0001 60001 T01500089 57027
Loading
Personal Weather Stations






























Interactive Weather Map
Tropical Storm Tracking
New forecast layout! Learn more

10-Day Weather Forecast

Advertisements
Track Severe Weather on mobile